Time;durP1;ratioP1;P1;durP2;ratioP2;P2;SDS_P1;SDS_P2;PMS_P1;PMS_P2;Temp;Humidity;BMP_temperature;BMP_pressure;BME280_temperature;BME280_humidity;BME280_pressure;Samples;Min_cycle;Max_cycle;Signal;HPM_P1;HPM_P2
2023/09/05 00:01:35;;;;;;;13.93;9.15;;;;;;;9.89;71.86;97313.03;6190740;28;21796;-67
2023/09/05 00:04:38;;;;;;;12.20;8.65;;;;;;;9.82;71.78;97314.31;6189749;28;20057;-68
2023/09/05 00:07:40;;;;;;;13.73;8.80;;;;;;;9.73;71.98;97320.06;6186671;28;20057;-68
2023/09/05 00:10:47;;;;;;;15.05;9.43;;;;;;;9.60;72.31;97309.38;6182930;28;20045;-68
2023/09/05 00:13:48;;;;;;;14.10;8.70;;;;;;;9.46;72.61;97308.44;6184748;28;20038;-68
2023/09/05 00:16:52;;;;;;;16.38;9.45;;;;;;;9.36;72.92;97311.53;6183697;28;20057;-67
2023/09/05 00:20:00;;;;;;;16.20;9.30;;;;;;;9.23;73.19;97326.25;6182462;28;20050;-67
2023/09/05 00:23:02;;;;;;;13.40;8.43;;;;;;;9.08;73.64;97320.00;6190089;28;20049;-67
2023/09/05 00:26:07;;;;;;;16.58;9.35;;;;;;;8.94;73.91;97304.94;6190427;28;20251;-67
2023/09/05 00:29:11;;;;;;;18.20;8.70;;;;;;;8.87;74.10;97303.59;6187780;28;20042;-68
2023/09/05 00:32:18;;;;;;;15.18;9.23;;;;;;;8.80;74.55;97312.69;6195233;28;20049;-68
2023/09/05 00:35:21;;;;;;;15.63;9.38;;;;;;;8.70;74.92;97312.31;6205843;28;20413;-68
2023/09/05 00:38:28;;;;;;;15.75;10.27;;;;;;;8.60;74.93;97316.31;6212768;28;20046;-67
2023/09/05 00:41:29;;;;;;;14.27;9.18;;;;;;;8.54;75.38;97317.47;6212401;28;20052;-68
2023/09/05 00:44:31;;;;;;;18.98;10.48;;;;;;;8.60;75.37;97315.47;6210249;28;20044;-68
2023/09/05 00:47:32;;;;;;;18.50;10.75;;;;;;;8.52;75.73;97314.09;6214312;28;20053;-67
2023/09/05 00:50:40;;;;;;;16.45;11.05;;;;;;;8.47;76.01;97304.75;6214697;28;20061;-68
2023/09/05 00:53:46;;;;;;;19.38;11.13;;;;;;;8.44;75.99;97316.25;6216394;28;20052;-68
2023/09/05 00:56:55;;;;;;;20.38;12.27;;;;;;;8.36;76.18;97313.09;6217296;28;20512;-68
2023/09/05 00:59:56;;;;;;;;;;;;;;;8.27;76.61;97319.66;6216973;28;20430;-67
2023/09/05 01:03:02;;;;;;;19.77;11.05;;;;;;;8.26;76.50;97317.09;6210509;28;19917;-67
2023/09/05 01:06:08;;;;;;;20.60;10.70;;;;;;;8.25;76.34;97299.66;6212314;28;20037;-68
2023/09/05 01:09:18;;;;;;;19.65;11.50;;;;;;;8.28;76.79;97310.00;6214888;28;20516;-68
2023/09/05 01:12:20;;;;;;;23.63;13.13;;;;;;;8.24;76.70;97319.81;6211296;28;20416;-68
2023/09/05 01:15:23;;;;;;;19.88;12.75;;;;;;;8.25;76.75;97325.88;6196144;28;20072;-68
2023/09/05 01:18:24;;;;;;;18.90;12.20;;;;;;;8.23;76.52;97333.81;6217827;28;20038;-68
2023/09/05 01:21:35;;;;;;;21.15;12.73;;;;;;;8.16;76.95;97319.31;6215617;28;20411;-68
2023/09/05 01:24:42;;;;;;;22.02;12.63;;;;;;;8.23;76.89;97338.22;6216453;28;20045;-68
2023/09/05 01:27:48;;;;;;;22.77;12.05;;;;;;;8.20;76.92;97327.88;6213936;28;20068;-68
2023/09/05 01:30:50;;;;;;;20.73;10.80;;;;;;;8.18;76.78;97322.72;6214129;28;20042;-68
2023/09/05 01:33:52;;;;;;;18.70;11.85;;;;;;;8.16;76.69;97324.56;6210306;28;20168;-68
2023/09/05 01:36:56;;;;;;;20.52;11.27;;;;;;;8.19;76.90;97334.06;6213634;28;20417;-68
2023/09/05 01:40:03;;;;;;;21.83;11.50;;;;;;;8.21;76.58;97329.56;6213558;28;20050;-67
2023/09/05 01:43:07;;;;;;;20.38;12.35;;;;;;;8.22;76.45;97331.28;6197345;28;20045;-68
2023/09/05 01:46:12;;;;;;;22.70;12.75;;;;;;;8.26;76.28;97325.78;6209657;28;20050;-68
2023/09/05 01:49:15;;;;;;;21.25;11.93;;;;;;;8.31;76.29;97330.84;6219641;28;20045;-68
2023/09/05 01:52:20;;;;;;;23.88;11.45;;;;;;;8.43;76.01;97324.16;6217075;28;20037;-68
2023/09/05 01:55:24;;;;;;;21.55;12.07;;;;;;;8.69;75.54;97325.50;6196320;28;20058;-68
2023/09/05 01:58:25;;;;;;;21.92;11.77;;;;;;;9.03;74.90;97329.03;6211023;28;20035;-68
2023/09/05 02:01:29;;;;;;;;;;;;;;;9.30;74.89;97326.78;6218704;28;20418;-68
2023/09/05 02:04:35;;;;;;;20.10;12.03;;;;;;;9.52;73.68;97314.19;6215171;28;19925;-68
2023/09/05 02:07:37;;;;;;;20.33;9.68;;;;;;;9.83;73.07;97318.63;6214248;28;20473;-68
2023/09/05 02:10:40;;;;;;;17.65;8.52;;;;;;;10.07;72.54;97319.06;6213178;28;20053;-68
2023/09/05 02:13:44;;;;;;;;;;;;;;;10.27;72.27;97320.59;6214366;28;20042;-68
2023/09/05 02:16:46;;;;;;;13.02;7.70;;;;;;;10.38;71.49;97311.25;6208600;28;19921;-68
2023/09/05 02:19:50;;;;;;;14.25;8.68;;;;;;;10.52;71.32;97316.56;6215557;28;20042;-68
2023/09/05 02:22:54;;;;;;;14.82;8.13;;;;;;;10.64;70.95;97321.13;6211869;28;20064;-68
2023/09/05 02:25:57;;;;;;;;;;;;;;;10.71;71.08;97325.09;6216991;28;20532;-68
2023/09/05 02:28:58;;;;;;;16.13;8.27;;;;;;;10.70;70.74;97312.91;6212304;28;19918;-68
2023/09/05 02:32:02;;;;;;;17.77;8.90;;;;;;;10.86;70.47;97317.25;6212703;28;20057;-68
2023/09/05 02:35:06;;;;;;;15.80;9.50;;;;;;;10.92;70.34;97327.41;6212348;28;20046;-68
2023/09/05 02:38:10;;;;;;;15.30;9.02;;;;;;;11.02;70.32;97323.31;6214088;28;20465;-67
2023/09/05 02:41:14;;;;;;;17.30;10.00;;;;;;;11.13;70.03;97328.78;6215559;28;20270;-67
2023/09/05 02:44:16;;;;;;;19.55;9.07;;;;;;;11.21;70.03;97309.91;6209918;28;20178;-68
2023/09/05 02:47:20;;;;;;;16.00;9.18;;;;;;;11.42;69.76;97321.75;6212572;28;20413;-68
2023/09/05 02:50:24;;;;;;;16.23;9.20;;;;;;;11.48;69.21;97320.53;6207935;28;20046;-68
2023/09/05 02:53:28;;;;;;;15.63;8.80;;;;;;;11.63;69.10;97324.00;6215038;28;20057;-69
2023/09/05 02:56:30;;;;;;;13.88;8.43;;;;;;;11.73;68.73;97329.56;6210852;28;20054;-68
2023/09/05 02:59:34;;;;;;;17.63;8.48;;;;;;;11.75;68.71;97319.75;6216508;28;20451;-69
2023/09/05 03:02:42;;;;;;;20.55;11.15;;;;;;;11.79;68.91;97331.81;6209446;28;21582;-69
2023/09/05 03:05:44;;;;;;;20.02;12.45;;;;;;;11.83;68.71;97330.66;6211315;28;20447;-69
2023/09/05 03:08:46;;;;;;;23.92;11.70;;;;;;;11.86;68.68;97325.22;6209709;28;20460;-68
2023/09/05 03:11:53;;;;;;;24.70;11.55;;;;;;;11.95;68.75;97324.66;6209529;28;20573;-68
2023/09/05 03:14:58;;;;;;;17.17;9.75;;;;;;;11.86;68.54;97312.03;6212896;28;20042;-73
2023/09/05 03:18:04;;;;;;;17.00;10.40;;;;;;;11.95;68.57;97311.47;6213175;28;20046;-69
2023/09/05 03:21:08;;;;;;;17.67;9.95;;;;;;;11.97;68.71;97314.00;6208616;28;20041;-69
2023/09/05 03:24:09;;;;;;;15.90;9.75;;;;;;;11.96;68.71;97321.09;6212012;28;20030;-69
2023/09/05 03:27:13;;;;;;;18.50;9.00;;;;;;;11.81;68.68;97307.03;6214844;28;20513;-69
2023/09/05 03:30:16;;;;;;;14.30;9.00;;;;;;;11.90;69.00;97332.03;6215575;28;20385;-69
2023/09/05 03:33:18;;;;;;;17.65;9.07;;;;;;;11.79;69.45;97323.91;6218433;28;20061;-69
2023/09/05 03:36:21;;;;;;;;;;;;;;;11.82;69.66;97318.44;6221308;28;20505;-68
2023/09/05 03:39:25;;;;;;;12.90;8.18;;;;;;;11.82;69.61;97292.06;6220806;28;20035;-70
2023/09/05 03:42:34;;;;;;;15.23;9.73;;;;;;;11.74;70.13;97283.78;6221060;28;20034;-68
2023/09/05 03:45:36;;;;;;;16.95;8.73;;;;;;;11.74;70.30;97291.69;6220402;28;20049;-70
2023/09/05 03:48:42;;;;;;;14.88;9.73;;;;;;;11.79;70.77;97302.81;6203319;28;20042;-70
2023/09/05 03:51:45;;;;;;;25.73;15.75;;;;;;;11.87;70.69;97295.28;6201968;28;20537;-70
2023/09/05 03:54:48;;;;;;;20.13;11.38;;;;;;;11.97;70.71;97290.28;6207742;28;20547;-70
2023/09/05 03:57:54;;;;;;;15.07;10.23;;;;;;;12.07;70.29;97291.38;6219691;28;20567;-70
2023/09/05 04:01:02;;;;;;;21.92;14.45;;;;;;;12.13;70.24;97297.09;6219776;28;20519;-70
2023/09/05 04:04:10;;;;;;;20.80;12.10;;;;;;;12.28;70.08;97297.06;6201814;28;20516;-69
2023/09/05 04:07:12;;;;;;;22.17;12.60;;;;;;;12.42;69.65;97294.38;6219283;28;20045;-70
2023/09/05 04:10:13;;;;;;;16.67;10.27;;;;;;;12.55;69.36;97279.41;6212240;28;20053;-69
2023/09/05 04:13:16;;;;;;;;;;;;;;;12.87;68.71;97294.06;6208822;28;20029;-69
2023/09/05 04:16:24;;;;;;;18.88;9.40;;;;;;;13.04;67.99;97294.59;6219460;28;20388;-68
2023/09/05 04:19:28;;;;;;;24.67;10.20;;;;;;;13.11;67.35;97288.94;6195097;28;20047;-69
2023/09/05 04:22:32;;;;;;;17.00;9.38;;;;;;;13.19;67.24;97302.44;6195224;28;20058;-69
2023/09/05 04:25:40;;;;;;;21.52;10.65;;;;;;;13.26;67.13;97303.75;6195076;28;20042;-68
2023/09/05 04:28:44;;;;;;;14.23;8.85;;;;;;;13.40;66.50;97301.00;6210041;28;20457;-68
2023/09/05 04:31:49;;;;;;;16.75;9.95;;;;;;;13.55;66.33;97298.22;6216595;28;20057;-68
2023/09/05 04:34:54;;;;;;;15.20;8.90;;;;;;;13.68;65.57;97299.06;6198632;28;20053;-68
2023/09/05 04:38:00;;;;;;;10.07;8.07;;;;;;;13.79;65.19;97296.50;6207628;28;20050;-69
2023/09/05 04:41:05;;;;;;;13.57;8.63;;;;;;;13.88;65.26;97298.50;6219495;28;20042;-69
2023/09/05 04:44:10;;;;;;;15.85;9.30;;;;;;;13.85;65.43;97290.78;6218767;28;20042;-68
2023/09/05 04:47:28;;;;;;;15.00;9.38;;;;;;;13.84;66.15;97285.59;6219331;28;20529;-68
2023/09/05 04:50:31;;;;;;;12.20;8.15;;;;;;;13.75;66.05;97289.72;6219327;28;20041;-69
2023/09/05 04:53:33;;;;;;;10.48;7.57;;;;;;;13.81;65.53;97278.72;6220156;28;20034;-68
2023/09/05 04:56:35;;;;;;;13.75;7.85;;;;;;;13.62;65.92;97283.66;6215669;28;20077;-68
2023/09/05 04:59:43;;;;;;;14.60;7.57;;;;;;;13.44;66.58;97285.75;6196386;28;20576;-68
2023/09/05 05:02:50;;;;;;;11.30;7.32;;;;;;;13.41;66.88;97286.81;6192981;28;20520;-68
2023/09/05 05:05:53;;;;;;;10.32;6.90;;;;;;;13.42;66.82;97277.13;6219794;28;20137;-68
2023/09/05 05:09:00;;;;;;;11.90;7.20;;;;;;;13.41;66.68;97283.31;6219364;28;20041;-69
2023/09/05 05:12:04;;;;;;;12.88;7.75;;;;;;;13.31;66.91;97279.66;6219104;28;20042;-68
2023/09/05 05:15:08;;;;;;;13.25;7.78;;;;;;;13.20;67.10;97277.72;6219704;28;20041;-68
2023/09/05 05:18:14;;;;;;;13.43;6.97;;;;;;;13.28;67.37;97272.78;6219914;28;20037;-68
2023/09/05 05:21:18;;;;;;;13.00;7.55;;;;;;;13.31;67.15;97262.00;6219303;28;20053;-68
2023/09/05 05:24:22;;;;;;;10.70;7.30;;;;;;;13.37;66.87;97274.78;6219213;28;20449;-68
2023/09/05 05:27:24;;;;;;;10.57;7.47;;;;;;;13.40;66.83;97268.44;6216282;28;20405;-68
2023/09/05 05:30:27;;;;;;;9.43;7.07;;;;;;;13.32;66.92;97247.81;6220200;28;20046;-68
2023/09/05 05:33:31;;;;;;;12.52;8.25;;;;;;;13.39;66.77;97257.03;6222330;28;20065;-68
2023/09/05 05:36:35;;;;;;;10.60;7.00;;;;;;;13.35;67.07;97259.97;6220969;28;20046;-68
2023/09/05 05:39:38;;;;;;;12.07;7.70;;;;;;;13.51;66.65;97259.75;6222590;28;20675;-68
2023/09/05 05:42:42;;;;;;;13.32;7.85;;;;;;;13.66;66.34;97258.66;6205775;28;20046;-68
2023/09/05 05:45:51;;;;;;;13.45;8.52;;;;;;;13.65;66.25;97256.97;6203232;28;20517;-68
2023/09/05 05:48:57;;;;;;;13.43;9.25;;;;;;;13.69;66.28;97248.69;6204765;28;20045;-68
2023/09/05 05:52:01;;;;;;;15.50;7.68;;;;;;;13.70;66.46;97249.53;6222129;28;20042;-68
2023/09/05 05:55:05;;;;;;;12.60;8.38;;;;;;;13.96;65.95;97254.78;6221622;28;20050;-68
2023/09/05 05:58:13;;;;;;;12.18;7.32;;;;;;;14.30;64.56;97246.06;6219743;28;20045;-68
2023/09/05 06:01:20;;;;;;;10.70;7.13;;;;;;;14.46;64.15;97243.09;6221940;28;20041;-68
2023/09/05 06:04:23;;;;;;;11.73;7.22;;;;;;;14.67;63.38;97246.00;6221715;28;20456;-68
2023/09/05 06:07:24;;;;;;;10.68;7.05;;;;;;;14.85;62.61;97242.91;6219430;28;20044;-69
2023/09/05 06:10:26;;;;;;;11.60;7.22;;;;;;;14.93;62.21;97243.16;6220763;28;20050;-68
2023/09/05 06:13:29;;;;;;;11.98;6.50;;;;;;;15.00;61.87;97226.69;6221358;28;20489;-68
2023/09/05 06:16:31;;;;;;;9.80;6.18;;;;;;;15.01;61.57;97222.22;6220465;28;20432;-69
2023/09/05 06:19:33;;;;;;;13.93;6.13;;;;;;;15.03;61.81;97214.97;6222402;28;20140;-69
2023/09/05 06:22:34;;;;;;;6.97;5.25;;;;;;;15.07;61.66;97221.75;6220760;28;20066;-69
2023/09/05 06:25:41;;;;;;;9.45;6.32;;;;;;;15.17;61.44;97222.72;6220974;28;20042;-69
2023/09/05 06:28:47;;;;;;;11.60;6.22;;;;;;;15.38;60.96;97232.59;6222228;28;20045;-69
2023/09/05 06:31:49;;;;;;;9.55;5.38;;;;;;;15.51;60.83;97225.34;6221518;28;20038;-69
2023/09/05 06:34:50;;;;;;;9.07;5.82;;;;;;;15.85;60.08;97228.00;6221509;28;20050;-69
2023/09/05 06:37:55;;;;;;;8.77;5.82;;;;;;;16.21;59.21;97224.16;6221500;28;20136;-68
2023/09/05 06:41:04;;;;;;;9.32;5.10;;;;;;;16.64;57.99;97214.44;6203629;28;20046;-69
2023/09/05 06:44:10;;;;;;;5.55;3.97;;;;;;;17.09;57.42;97215.03;6221235;28;20135;-68
2023/09/05 06:47:17;;;;;;;5.95;4.57;;;;;;;17.73;55.70;97209.44;6222113;28;20049;-69
2023/09/05 06:50:21;;;;;;;6.80;4.40;;;;;;;18.76;53.59;97207.34;6221925;28;20035;-69
2023/09/05 06:53:30;;;;;;;6.00;3.92;;;;;;;20.70;49.28;97208.25;6221861;28;20425;-68
2023/09/05 06:56:36;;;;;;;4.40;3.85;;;;;;;23.12;44.59;97201.41;6221179;28;20192;-69
2023/09/05 06:59:41;;;;;;;5.93;4.38;;;;;;;24.91;41.31;97219.56;6222052;28;20041;-69
2023/09/05 07:02:42;;;;;;;5.38;3.50;;;;;;;29.85;33.69;97216.59;6221785;28;20034;-69
2023/09/05 07:05:49;;;;;;;4.03;3.60;;;;;;;32.95;29.19;97209.66;6221551;28;20042;-67
2023/09/05 07:08:55;;;;;;;5.00;3.75;;;;;;;32.28;28.89;97206.19;6221426;28;20053;-69
2023/09/05 07:11:58;;;;;;;7.07;3.33;;;;;;;30.44;30.79;97187.56;6221397;28;20504;-69
2023/09/05 07:15:02;;;;;;;4.53;3.40;;;;;;;28.59;32.04;97195.78;6220689;28;20056;-67
2023/09/05 07:18:08;;;;;;;6.55;3.00;;;;;;;27.23;33.59;97173.94;6221109;28;20058;-68
2023/09/05 07:21:12;;;;;;;4.88;3.22;;;;;;;26.50;34.63;97177.81;6221300;28;20046;-69
2023/09/05 07:24:17;;;;;;;2.70;2.45;;;;;;;25.87;34.95;97151.41;6221247;28;20057;-68
2023/09/05 07:27:20;;;;;;;2.92;2.58;;;;;;;25.83;35.59;97165.47;6221060;28;20042;-68
2023/09/05 07:30:26;;;;;;;2.97;2.67;;;;;;;25.72;35.85;97164.03;6221209;28;20038;-68
2023/09/05 07:33:30;;;;;;;3.40;2.80;;;;;;;25.62;35.14;97160.78;6220980;28;20054;-68
2023/09/05 07:36:37;;;;;;;3.90;2.67;;;;;;;25.33;35.03;97154.38;6219988;28;20075;-68
2023/09/05 07:39:44;;;;;;;3.28;2.40;;;;;;;25.00;35.56;97154.72;6220333;28;20515;-68
2023/09/05 07:42:48;;;;;;;4.45;2.30;;;;;;;24.90;35.87;97154.13;6220049;28;20414;-69
2023/09/05 07:45:56;;;;;;;5.30;3.42;;;;;;;25.10;35.82;97146.38;6220709;28;20054;-67
2023/09/05 07:48:57;;;;;;;3.75;2.40;;;;;;;25.24;35.75;97144.75;6220492;28;20053;-68
2023/09/05 07:51:59;;;;;;;3.33;2.20;;;;;;;25.09;35.52;97142.00;6219811;28;20049;-69
2023/09/05 07:55:04;;;;;;;3.83;2.15;;;;;;;24.64;35.77;97143.78;6220801;28;20441;-69
2023/09/05 07:58:12;;;;;;;3.88;2.17;;;;;;;24.16;36.81;97138.56;6220790;28;20514;-68
2023/09/05 08:01:19;;;;;;;2.22;2.00;;;;;;;23.69;37.31;97135.94;6220696;28;20128;-68
2023/09/05 08:04:24;;;;;;;2.53;2.03;;;;;;;23.43;37.58;97133.56;6221079;28;20038;-68
2023/09/05 08:07:27;;;;;;;3.45;2.65;;;;;;;23.11;38.23;97135.34;6220469;28;20046;-68
2023/09/05 08:10:28;;;;;;;2.67;2.15;;;;;;;22.89;38.70;97130.66;6219487;28;20514;-68
2023/09/05 08:13:30;;;;;;;5.07;1.75;;;;;;;23.46;37.78;97133.19;6202729;28;20057;-67
2023/09/05 08:16:34;;;;;;;2.83;1.95;;;;;;;24.05;36.60;97128.22;6219733;28;20057;-69
2023/09/05 08:19:44;;;;;;;5.03;1.92;;;;;;;23.81;37.34;97125.66;6220032;28;20046;-68
2023/09/05 08:22:46;;;;;;;4.53;1.85;;;;;;;23.58;37.77;97130.97;6219823;28;20057;-69
2023/09/05 08:25:51;;;;;;;4.10;1.77;;;;;;;23.02;38.24;97131.00;6220079;28;20038;-68
2023/09/05 08:28:57;;;;;;;2.90;1.80;;;;;;;22.56;39.22;97133.34;6219788;28;20046;-69
2023/09/05 08:32:02;;;;;;;2.50;1.80;;;;;;;22.20;39.77;97117.63;6219148;28;20045;-67
2023/09/05 08:35:03;;;;;;;2.28;1.90;;;;;;;22.06;40.67;97126.28;6219946;28;20188;-68
2023/09/05 08:38:05;;;;;;;3.80;2.08;;;;;;;22.90;39.39;97133.19;6219827;28;20060;-69
2023/09/05 08:41:10;;;;;;;4.10;1.95;;;;;;;23.13;39.19;97138.69;6219629;28;20152;-69
2023/09/05 08:44:14;;;;;;;2.10;1.90;;;;;;;23.13;38.77;97133.31;6219930;28;20041;-68
2023/09/05 08:47:19;;;;;;;3.07;1.57;;;;;;;23.00;38.81;97128.47;6219218;28;20500;-69
2023/09/05 08:50:26;;;;;;;3.22;1.88;;;;;;;22.97;39.16;97125.31;6219532;28;20045;-69
2023/09/05 08:53:54;;;;;;;2.53;1.60;;;;;;;22.75;39.44;97119.59;6218704;28;20061;-68
2023/09/05 08:57:04;;;;;;;2.00;1.45;;;;;;;22.48;39.61;97123.50;6219539;28;20053;-67
2023/09/05 09:00:08;;;;;;;2.17;1.63;;;;;;;22.38;40.11;97107.56;6202524;28;20046;-69
2023/09/05 09:03:11;;;;;;;2.65;1.95;;;;;;;22.46;40.59;97108.59;6219523;28;20041;-69
2023/09/05 09:06:24;;;;;;;4.60;2.15;;;;;;;22.61;39.76;97109.56;6223167;28;20058;-69
2023/09/05 09:09:34;;;;;;;3.80;1.65;;;;;;;22.45;40.05;97107.75;6224312;28;20046;-67
2023/09/05 09:12:38;;;;;;;1.83;1.25;;;;;;;22.39;39.91;97103.91;6223436;28;20433;-67
2023/09/05 09:15:46;;;;;;;3.63;1.98;;;;;;;22.38;39.95;97118.28;6223808;28;20083;-69
2023/09/05 09:18:59;;;;;;;1.55;1.25;;;;;;;22.28;39.79;97112.28;6223840;28;20056;-69
2023/09/05 09:22:07;;;;;;;4.90;1.65;;;;;;;22.16;40.16;97109.03;6224401;28;20520;-69
2023/09/05 09:25:14;;;;;;;1.95;1.27;;;;;;;22.19;40.14;97118.59;6223886;28;20048;-69
2023/09/05 09:28:23;;;;;;;2.83;1.45;;;;;;;22.19;40.25;97113.25;6223128;28;20046;-69
2023/09/05 09:31:29;;;;;;;2.65;1.60;;;;;;;22.06;40.25;97107.53;6223649;28;20042;-70
2023/09/05 09:34:38;;;;;;;3.20;1.70;;;;;;;21.96;40.48;97118.38;6223799;28;20057;-69
2023/09/05 09:37:48;;;;;;;4.20;1.90;;;;;;;21.77;40.53;97119.53;6223417;28;20046;-68
2023/09/05 09:40:49;;;;;;;1.77;1.27;;;;;;;21.62;40.47;97121.16;6223004;28;20053;-68
2023/09/05 09:43:55;;;;;;;3.65;1.20;;;;;;;21.52;40.40;97124.81;6223413;28;20048;-68
2023/09/05 09:46:58;;;;;;;1.20;0.95;;;;;;;21.38;40.42;97113.88;6223058;28;20543;-67
2023/09/05 09:50:02;;;;;;;2.83;1.38;;;;;;;21.49;40.64;97110.91;6223100;28;20057;-68
2023/09/05 09:53:04;;;;;;;1.52;1.02;;;;;;;21.64;40.31;97116.47;6205634;28;20057;-67
2023/09/05 09:56:09;;;;;;;1.80;1.50;;;;;;;21.66;39.86;97111.81;6222954;28;20058;-67
2023/09/05 09:59:15;;;;;;;2.33;1.40;;;;;;;21.75;39.62;97116.16;6223130;28;20058;-69
2023/09/05 10:02:20;;;;;;;2.70;1.20;;;;;;;21.58;39.79;97114.44;6223351;28;20038;-70
2023/09/05 10:05:25;;;;;;;2.15;1.30;;;;;;;21.37;40.09;97107.66;6222750;28;20069;-69
2023/09/05 10:08:29;;;;;;;2.22;1.20;;;;;;;21.39;40.60;97111.03;6223055;28;20049;-69
2023/09/05 10:11:33;;;;;;;3.00;1.20;;;;;;;21.36;40.42;97110.50;6223144;28;20038;-67
2023/09/05 10:14:42;;;;;;;2.08;1.20;;;;;;;21.25;40.76;97098.22;6222257;28;20054;-68
2023/09/05 10:17:45;;;;;;;4.13;1.25;;;;;;;21.25;40.99;97108.94;6222704;28;20477;-69
2023/09/05 10:20:52;;;;;;;3.90;1.17;;;;;;;21.29;41.06;97110.31;6222877;28;20502;-69
2023/09/05 10:23:55;;;;;;;1.70;1.10;;;;;;;21.38;40.35;97109.38;6222597;28;20041;-69
2023/09/05 10:26:57;;;;;;;2.67;1.10;;;;;;;21.38;40.23;97108.53;6222600;28;20194;-68
2023/09/05 10:30:01;;;;;;;4.43;1.70;;;;;;;21.36;40.44;97105.13;6222395;28;20045;-68
2023/09/05 10:33:07;;;;;;;1.63;1.40;;;;;;;21.37;40.57;97106.84;6196598;28;20197;-68
2023/09/05 10:36:41;;;;;;;3.20;1.20;;;;;;;21.55;40.21;97114.78;6197629;28;20047;-68
2023/09/05 10:39:56;;;;;;;2.22;1.15;;;;;;;21.56;39.97;97111.09;6198087;28;20141;-68
2023/09/05 10:43:01;;;;;;;2.95;1.42;;;;;;;21.66;39.72;97117.16;6197567;28;20521;-68
2023/09/05 10:46:04;;;;;;;2.85;1.83;;;;;;;21.98;39.76;97111.84;6197076;28;20042;-68
2023/09/05 10:49:15;;;;;;;3.00;1.85;;;;;;;22.51;38.67;97106.25;6197881;28;20046;-68
2023/09/05 10:52:21;;;;;;;2.15;1.58;;;;;;;23.69;36.70;97122.50;6197747;28;20046;-69
2023/09/05 10:55:29;;;;;;;1.67;1.20;;;;;;;25.57;33.62;97112.88;6197576;28;20042;-69
2023/09/05 10:58:51;;;;;;;2.85;2.00;;;;;;;25.86;32.88;97124.63;6196402;28;20537;-68
2023/09/05 11:01:56;;;;;;;9.20;4.25;;;;;;;25.33;35.16;97122.06;6197702;28;20057;-68
2023/09/05 11:05:00;;;;;;;6.10;4.13;;;;;;;24.77;37.43;97117.09;6197611;28;20038;-69
2023/09/05 11:08:04;;;;;;;10.13;4.15;;;;;;;24.25;38.19;97122.38;6197183;28;20050;-69
2023/09/05 11:11:07;;;;;;;7.97;5.03;;;;;;;23.88;38.99;97118.59;6197323;28;20229;-70
2023/09/05 11:14:11;;;;;;;11.60;5.20;;;;;;;23.46;40.16;97117.09;6197189;28;20425;-69
2023/09/05 11:17:20;;;;;;;10.18;5.50;;;;;;;22.94;41.39;97123.78;6196821;28;20061;-69
2023/09/05 11:20:38;;;;;;;8.82;4.55;;;;;;;22.51;42.14;97119.66;6196134;28;20081;-69
2023/09/05 11:23:53;;;;;;;10.05;5.85;;;;;;;22.15;43.04;97114.56;6197056;28;20506;-69
2023/09/05 11:26:54;;;;;;;12.13;5.43;;;;;;;21.77;43.97;97114.19;6196464;28;20426;-69
2023/09/05 11:30:02;;;;;;;11.25;6.07;;;;;;;21.48;44.84;97103.88;6196223;28;20055;-69
2023/09/05 11:33:14;;;;;;;16.15;7.43;;;;;;;21.32;45.43;97098.44;6210488;28;20513;-69
2023/09/05 11:36:20;;;;;;;15.88;8.82;;;;;;;21.23;46.26;97100.22;6220426;28;20061;-69
2023/09/05 11:39:27;;;;;;;21.15;10.05;;;;;;;21.24;47.16;97120.66;6221034;28;20045;-70
2023/09/05 11:42:31;;;;;;;21.17;11.38;;;;;;;21.18;47.13;97107.91;6221000;28;20045;-69
2023/09/05 11:45:39;;;;;;;23.77;13.25;;;;;;;21.27;47.21;97117.66;6220732;28;20042;-69
2023/09/05 11:48:48;;;;;;;24.55;13.20;;;;;;;21.19;47.96;97114.94;6220444;28;20042;-69
2023/09/05 11:51:51;;;;;;;27.00;12.55;;;;;;;21.15;47.80;97118.94;6220450;28;20061;-69
2023/09/05 11:55:01;;;;;;;24.02;12.38;;;;;;;21.04;47.79;97120.88;6203002;28;20049;-68
2023/09/05 11:58:05;;;;;;;26.17;13.80;;;;;;;20.90;48.18;97132.16;6219207;28;20050;-70
2023/09/05 12:01:10;;;;;;;26.45;13.07;;;;;;;20.81;48.21;97122.41;6219812;28;20503;-69
2023/09/05 12:04:16;;;;;;;23.27;11.65;;;;;;;20.85;48.12;97126.44;6202595;28;20137;-69
2023/09/05 12:07:23;;;;;;;19.50;10.82;;;;;;;20.97;48.18;97116.31;6219951;28;20034;-69
2023/09/05 12:10:37;;;;;;;22.20;11.45;;;;;;;21.06;47.71;97115.34;6219739;28;20081;-69
2023/09/05 12:13:45;;;;;;;16.73;10.55;;;;;;;21.15;47.96;97114.41;6220069;28;20446;-69
2023/09/05 12:16:48;;;;;;;22.88;11.05;;;;;;;21.34;47.49;97107.13;6219781;28;20513;-68
2023/09/05 12:19:55;;;;;;;21.25;12.05;;;;;;;21.55;47.18;97109.44;6219563;28;20041;-69
2023/09/05 12:23:02;;;;;;;17.48;11.48;;;;;;;21.71;46.90;97110.31;6219740;28;20053;-69
2023/09/05 12:26:06;;;;;;;20.35;11.32;;;;;;;21.90;46.51;97098.44;6219622;28;20042;-69
2023/09/05 12:29:09;;;;;;;20.10;11.68;;;;;;;22.13;46.09;97104.00;6219777;28;20050;-69
2023/09/05 12:32:15;;;;;;;19.90;10.15;;;;;;;22.15;45.93;97106.53;6219196;28;20053;-69
2023/09/05 12:35:19;;;;;;;16.63;10.05;;;;;;;22.04;46.23;97110.34;6218331;28;20046;-69
2023/09/05 12:38:28;;;;;;;23.63;11.32;;;;;;;21.73;46.92;97110.97;6201972;28;20425;-69
2023/09/05 12:41:34;;;;;;;16.75;8.82;;;;;;;21.33;47.62;97110.81;6218591;28;20058;-69
2023/09/05 12:44:35;;;;;;;15.77;9.00;;;;;;;20.97;48.23;97109.13;6219768;28;20413;-69
2023/09/05 12:47:37;;;;;;;19.83;10.85;;;;;;;20.79;48.73;97108.34;6219692;28;20497;-69
2023/09/05 12:50:42;;;;;;;15.45;9.23;;;;;;;20.77;49.22;97099.66;6219757;28;20421;-69
2023/09/05 12:53:48;;;;;;;16.52;7.75;;;;;;;20.93;48.82;97105.09;6219383;28;20050;-69
2023/09/05 12:56:56;;;;;;;11.82;7.63;;;;;;;20.89;49.15;97098.41;6219342;28;20050;-69
2023/09/05 13:00:01;;;;;;;12.05;7.70;;;;;;;20.85;49.27;97111.22;6219256;28;20042;-69
2023/09/05 13:03:10;;;;;;;14.07;8.52;;;;;;;20.69;49.54;97107.63;6219176;28;20049;-69
2023/09/05 13:06:19;;;;;;;16.20;9.65;;;;;;;20.44;50.14;97094.06;6219494;28;20046;-69
2023/09/05 13:09:20;;;;;;;15.52;8.73;;;;;;;20.20;50.86;97102.72;6219319;28;20045;-69
2023/09/05 13:12:27;;;;;;;14.30;9.05;;;;;;;20.25;50.83;97110.28;6219090;28;20042;-69
2023/09/05 13:15:29;;;;;;;12.40;8.02;;;;;;;20.26;50.99;97111.94;6219350;28;20045;-69
2023/09/05 13:18:33;;;;;;;12.25;7.68;;;;;;;20.13;51.32;97107.84;6219168;28;20045;-69
2023/09/05 13:21:42;;;;;;;11.93;7.25;;;;;;;19.83;52.12;97111.72;6219054;28;20041;-70
2023/09/05 13:24:46;;;;;;;11.10;6.63;;;;;;;19.46;52.97;97103.78;6218374;28;20137;-69
2023/09/05 13:27:53;;;;;;;12.40;6.88;;;;;;;19.16;53.80;97103.06;6219305;28;20045;-69
2023/09/05 13:31:01;;;;;;;10.40;7.25;;;;;;;18.87;54.64;97094.38;6219101;28;20049;-68
2023/09/05 13:34:04;;;;;;;18.05;8.95;;;;;;;18.68;54.87;97109.38;6193217;28;20478;-69
2023/09/05 13:37:09;;;;;;;14.82;7.93;;;;;;;18.55;55.77;97103.53;6194381;28;20049;-68
2023/09/05 13:40:16;;;;;;;15.15;7.65;;;;;;;18.38;56.15;97103.28;6194752;28;20060;-68
2023/09/05 13:43:20;;;;;;;12.63;7.47;;;;;;;18.18;57.03;97102.47;6194475;28;20391;-69
2023/09/05 13:46:24;;;;;;;12.13;8.48;;;;;;;17.93;57.54;97097.72;6193605;28;20101;-68
2023/09/05 13:49:35;;;;;;;13.82;8.40;;;;;;;17.83;58.45;97100.34;6194527;28;20537;-70
2023/09/05 13:52:39;;;;;;;13.77;8.48;;;;;;;17.66;58.95;97085.03;6198439;28;20305;-69
2023/09/05 13:55:46;;;;;;;17.05;8.63;;;;;;;17.67;59.23;97102.72;6198231;28;20042;-69
2023/09/05 13:58:47;;;;;;;14.98;8.00;;;;;;;17.54;59.65;97104.78;6198483;28;20522;-70
2023/09/05 14:01:51;;;;;;;14.50;9.05;;;;;;;17.44;60.16;97110.94;6199102;28;20042;-69
2023/09/05 14:04:52;;;;;;;;;;;;;;;17.22;59.58;97111.13;6200536;28;20038;-69
2023/09/05 14:07:53;;;;;;;12.20;7.85;;;;;;;16.95;60.65;97104.59;6199363;28;20068;-69
2023/09/05 14:10:55;;;;;;;16.70;8.60;;;;;;;16.70;61.75;97103.19;6199197;28;20532;-69
2023/09/05 14:14:01;;;;;;;17.30;10.73;;;;;;;16.53;62.25;97109.97;6198199;28;20042;-69
2023/09/05 14:17:03;;;;;;;;;;;;;;;16.32;61.85;97109.09;6199586;28;20049;-69
2023/09/05 14:20:06;;;;;;;11.45;8.57;;;;;;;16.13;62.69;97115.09;6198078;28;20000;-70
2023/09/05 14:23:13;;;;;;;15.82;9.35;;;;;;;15.97;63.23;97115.56;6198203;28;20046;-70
2023/09/05 14:26:16;;;;;;;13.82;9.82;;;;;;;15.90;63.59;97119.69;6198452;28;20050;-69